Terminal Aerodrome Forecast
Issued by NWS

Current Version | Previous Version | Text Only | Print | Product List | Glossary Off
Versions: 1 2 3 4 5 6 7 8 9 10 11 12 13 14 15 16 17 18 19 20 21

000
FTUS44 KSJT 012300
TAFBBD
TAF
KBBD 012322Z 0200/0224 36011KT P6SM FEW080
     FM021000 VRB05KT P6SM SKC
     FM022000 18007KT P6SM SCT250=

USA.gov is the U.S. government's official web portal to all federal, state and local government web resources and services.